Strona główna
METAR-TAF:

METAR-TAF

Lotnisko :

Port lotniczy Londyn-City

Londyn, Anglia

Szerokość geograficzna: 51-30N, Długość geograficzna: 000-03E, wysokość: 5 m

Aktualna obserwacja pogody

Raport powstał 51 minut temu, godzina 11:20 UTC
Wiatr 4 kt od zachodnio-południowy zachód, zmienny między południowy zachód i zachodnio-północny zachód
Temperatura 11°C
Wilgotność 50%
Ciśnienie 1018 hPa
Widzialność 10 km lub więcej
Przerywane chmury na wysokości 4800 ft

METAR: EGLC 031120Z AUTO 25004KT 220V290 9999 BKN048 11/01 Q1018

czas: 13:11 (12:11 UTC)


TAF: brakujący

Obserwacja i prognoza pogody dla ponad 4000 lotnisk (raport METAR i TAF).

Dostępne stacje oznaczono żółtymi i czerwonymi punktami na mapie.

Najedź kursorem aby zobaczyć nazwę stacji.

Kliknij aby zobaczyć obserwacje i prognozy pogody.

Aby zmienić mapę: kliknij na zielony przycisk z czarnym krzyżykiem, aby powiększyć; na zielony przycisk z myślnikiem, aby pomniejszyć; na zielone strzałki, aby przejść do map sąsiednich.


METAR-TAF: